Lewiston, Michigan
Current Conditions -  °F | °C
As of 11:53 AM on Sunday 23 Nov 2014 (Local Time) from KGLR Reporting Station
Haze Haze  
Wind Chill:   Ceiling: 600
Heat Index:   Visibility: 3mi
Dew Point:   Wind: 14mph
Humidity: 97%   Direction: 200°SSW
Pressure: 29.68"   Gusts: NA
Location:  44.88°N, 84.31°W
Report Text: KGLR 231653Z AUTO 20012KT 3SM BR OVC006 06/06 A2968 RMK AO2 CIG 005V010 SLP061 T00610056
Loading
Personal Weather Stations






























Interactive Weather Map New forecast layout! Learn more

10-Day Weather Forecast

Advertisements
Track Severe Weather on mobile